createdAt,value
2022-10-10T00:00:51.540Z,1.60
2022-10-10T00:03:18.988Z,1.40
2022-10-10T00:05:45.935Z,1.83
2022-10-10T00:08:12.403Z,2.00
2022-10-10T00:10:38.716Z,1.80
2022-10-10T00:13:05.924Z,1.70
2022-10-10T00:15:32.402Z,2.20
2022-10-10T00:17:58.729Z,1.93
2022-10-10T00:20:25.095Z,2.00
2022-10-10T00:22:51.755Z,2.00
2022-10-10T00:25:18.341Z,2.27
2022-10-10T00:27:44.697Z,1.53
2022-10-10T00:30:11.194Z,1.30
2022-10-10T00:32:37.624Z,1.87
2022-10-10T00:35:05.107Z,1.63
2022-10-10T00:37:31.440Z,1.73
2022-10-10T00:39:57.867Z,2.10
2022-10-10T00:42:24.225Z,1.70
2022-10-10T00:45:24.585Z,1.60
2022-10-10T00:47:52.446Z,1.57
2022-10-10T00:50:19.772Z,1.67
2022-10-10T00:52:46.520Z,1.60
2022-10-10T00:55:13.398Z,1.90
2022-10-10T00:57:39.943Z,1.40
2022-10-10T01:00:07.337Z,1.43
2022-10-10T01:02:33.712Z,1.90
2022-10-10T01:05:00.068Z,1.87
2022-10-10T01:07:28.820Z,1.33
2022-10-10T01:09:57.328Z,1.50
2022-10-10T01:12:43.467Z,1.40
2022-10-10T01:15:26.455Z,2.03
2022-10-10T01:18:14.776Z,1.63
2022-10-10T01:21:05.462Z,1.57
2022-10-10T01:23:52.979Z,1.63
2022-10-10T01:26:43.476Z,2.27
2022-10-10T01:29:21.783Z,1.60
2022-10-10T01:31:51.842Z,1.40
2022-10-10T01:34:32.348Z,1.60
2022-10-10T01:37:04.849Z,1.70
2022-10-10T01:40:08.951Z,1.90
2022-10-10T01:42:42.462Z,1.97
2022-10-10T01:45:09.343Z,1.47
2022-10-10T01:47:35.738Z,1.50
2022-10-10T01:50:10.047Z,1.30
2022-10-10T01:52:50.265Z,1.70
2022-10-10T01:55:41.275Z,1.50
2022-10-10T01:58:16.592Z,1.53
2022-10-10T02:01:16.115Z,1.30
2022-10-10T02:03:45.799Z,1.60
2022-10-10T02:06:27.450Z,1.77
2022-10-10T02:09:13.439Z,1.50
2022-10-10T02:11:40.393Z,1.20
2022-10-10T02:14:20.709Z,1.37
2022-10-10T02:16:47.988Z,1.30
2022-10-10T02:19:18.035Z,1.37
2022-10-10T02:21:45.694Z,2.17
2022-10-10T02:24:13.521Z,1.70
2022-10-10T02:26:41.856Z,1.60
2022-10-10T02:29:15.833Z,1.33
2022-10-10T02:31:47.901Z,1.73
2022-10-10T02:34:19.450Z,1.37
2022-10-10T02:36:50.082Z,1.10
2022-10-10T02:39:17.964Z,1.67
2022-10-10T02:41:45.742Z,1.40
2022-10-10T02:44:12.631Z,1.23
2022-10-10T02:46:39.181Z,1.60
2022-10-10T02:49:08.171Z,1.47
2022-10-10T02:51:34.812Z,1.40
2022-10-10T02:54:01.131Z,1.40
2022-10-10T02:56:27.475Z,1.30
2022-10-10T02:58:54.209Z,1.70
2022-10-10T03:01:20.680Z,1.40
2022-10-10T03:03:47.044Z,1.20
2022-10-10T03:06:13.350Z,1.53
2022-10-10T03:08:39.715Z,1.30
2022-10-10T03:11:07.989Z,1.30
2022-10-10T03:13:34.297Z,1.77
2022-10-10T03:16:00.641Z,1.50
2022-10-10T03:18:26.945Z,1.30
2022-10-10T03:20:56.049Z,1.20
2022-10-10T03:23:24.076Z,1.57
2022-10-10T03:25:50.416Z,1.13
2022-10-10T03:28:16.785Z,1.20
2022-10-10T03:30:43.156Z,1.40
2022-10-10T03:33:09.707Z,1.40
2022-10-10T03:35:36.341Z,1.50
2022-10-10T03:38:02.773Z,1.33
2022-10-10T03:40:29.312Z,1.30
2022-10-10T03:42:55.761Z,2.13
2022-10-10T03:45:22.066Z,1.50
2022-10-10T03:47:48.409Z,1.53
2022-10-10T03:50:14.845Z,1.30
2022-10-10T03:52:41.176Z,1.60
2022-10-10T03:55:07.888Z,1.53
2022-10-10T03:57:34.213Z,1.47
2022-10-10T04:00:00.700Z,1.50
2022-10-10T04:02:27.047Z,1.50
2022-10-10T04:04:53.356Z,1.13
2022-10-10T04:07:20.292Z,1.20
2022-10-10T04:09:46.609Z,1.30
2022-10-10T04:12:12.943Z,1.57
2022-10-10T04:14:39.273Z,1.10
2022-10-10T04:17:05.597Z,1.27
2022-10-10T04:19:31.957Z,1.37
2022-10-10T04:21:58.310Z,1.40
2022-10-10T04:24:24.724Z,1.17
2022-10-10T04:26:51.055Z,1.20
2022-10-10T04:29:17.384Z,1.37
2022-10-10T04:31:43.705Z,1.33
2022-10-10T04:34:10.148Z,2.13
2022-10-10T04:36:36.758Z,2.30
2022-10-10T04:39:04.194Z,1.70
2022-10-10T04:41:30.532Z,3.13
2022-10-10T04:43:56.864Z,2.27
2022-10-10T04:46:23.366Z,3.00
2022-10-10T04:48:49.781Z,1.63
2022-10-10T04:51:17.400Z,2.00
2022-10-10T04:53:48.106Z,2.00
2022-10-10T04:56:16.612Z,1.90
2022-10-10T04:58:42.925Z,2.13
2022-10-10T05:01:09.300Z,1.70
2022-10-10T05:03:35.644Z,1.53
2022-10-10T05:06:02.014Z,2.13
2022-10-10T05:08:28.343Z,5.00
2022-10-10T05:10:55.007Z,6.90
2022-10-10T05:13:21.316Z,3.63
2022-10-10T05:15:50.446Z,7.63
2022-10-10T05:18:16.775Z,5.23
2022-10-10T05:20:43.907Z,4.83
2022-10-10T05:23:10.223Z,3.40
2022-10-10T05:25:36.532Z,4.33
2022-10-10T05:28:02.848Z,3.93
2022-10-10T05:30:29.165Z,3.67
2022-10-10T05:32:55.525Z,2.93
2022-10-10T05:35:21.948Z,3.80
2022-10-10T05:37:48.288Z,3.10
2022-10-10T05:40:14.683Z,2.50
2022-10-10T05:42:41.028Z,2.67
2022-10-10T05:45:07.717Z,2.87
2022-10-10T05:47:34.068Z,3.40
2022-10-10T05:50:00.365Z,3.73
2022-10-10T05:52:28.388Z,3.20
2022-10-10T05:54:54.717Z,4.40
2022-10-10T05:57:21.076Z,3.10
2022-10-10T05:59:47.384Z,5.73
2022-10-10T06:02:14.099Z,3.60
2022-10-10T06:04:40.508Z,3.00
2022-10-10T06:07:06.882Z,3.40
2022-10-10T06:09:33.216Z,3.33
2022-10-10T06:11:59.535Z,4.27
2022-10-10T06:14:25.955Z,3.33
2022-10-10T06:16:52.304Z,4.43
2022-10-10T06:19:18.697Z,4.03
2022-10-10T06:21:45.041Z,3.30
2022-10-10T06:24:11.463Z,3.20
2022-10-10T06:26:37.820Z,2.55
2022-10-10T06:29:05.011Z,3.55
2022-10-10T06:31:31.349Z,3.80
2022-10-10T06:33:57.651Z,4.60
2022-10-10T06:36:23.963Z,2.97
2022-10-10T06:38:50.369Z,3.45
2022-10-10T06:41:16.736Z,3.03
2022-10-10T06:43:43.124Z,3.60
2022-10-10T06:46:10.664Z,2.35
2022-10-10T06:48:37.496Z,4.85
2022-10-10T06:51:07.327Z,3.85
2022-10-10T06:53:34.145Z,6.63
2022-10-10T06:56:00.691Z,2.50
2022-10-10T06:58:27.895Z,2.67
2022-10-10T07:00:56.112Z,2.65
2022-10-10T07:03:22.609Z,3.10
2022-10-10T07:05:55.358Z,2.78
2022-10-10T07:08:21.736Z,2.58
2022-10-10T07:10:48.115Z,2.83
2022-10-10T07:13:14.769Z,2.53
2022-10-10T07:15:41.723Z,2.60
2022-10-10T07:18:08.345Z,3.75
2022-10-10T07:20:35.331Z,3.25
2022-10-10T07:23:01.879Z,3.00
2022-10-10T07:25:28.767Z,2.88
2022-10-10T07:27:56.451Z,3.17
2022-10-10T07:30:24.511Z,2.55
2022-10-10T07:32:53.098Z,3.00
2022-10-10T07:35:19.757Z,2.45
2022-10-10T07:37:46.271Z,2.28
2022-10-10T07:40:12.596Z,2.42
2022-10-10T07:42:39.104Z,2.75
2022-10-10T07:45:06.045Z,2.70
2022-10-10T07:47:32.417Z,2.28
2022-10-10T07:49:58.721Z,2.63
2022-10-10T07:52:25.035Z,2.22
2022-10-10T07:54:51.349Z,2.60
2022-10-10T07:57:17.661Z,4.55
2022-10-10T07:59:45.946Z,2.33
2022-10-10T08:02:12.929Z,3.58
2022-10-10T08:04:40.290Z,2.47
2022-10-10T08:07:07.221Z,3.42
2022-10-10T08:09:33.521Z,5.82
2022-10-10T08:11:59.861Z,5.13
2022-10-10T08:14:26.266Z,5.63
2022-10-10T08:16:52.672Z,4.82
2022-10-10T08:19:19.034Z,4.10
2022-10-10T08:21:45.372Z,5.50
2022-10-10T08:24:12.012Z,3.00
2022-10-10T08:26:38.352Z,3.97
2022-10-10T08:29:05.109Z,5.53
2022-10-10T08:31:31.873Z,5.47
2022-10-10T08:33:58.250Z,5.10
2022-10-10T08:36:25.100Z,6.85
2022-10-10T08:38:56.967Z,7.47
2022-10-10T08:41:42.231Z,5.15
2022-10-10T08:44:20.046Z,5.95
2022-10-10T08:46:58.522Z,5.07
2022-10-10T08:49:44.625Z,7.00
2022-10-10T08:52:15.070Z,7.30
2022-10-10T08:54:41.698Z,7.97
2022-10-10T08:57:19.461Z,4.32
2022-10-10T08:59:46.173Z,6.72
2022-10-10T09:02:43.998Z,6.28
2022-10-10T09:05:37.088Z,6.70
2022-10-10T09:08:16.031Z,5.95
2022-10-10T09:10:56.383Z,3.53
2022-10-10T09:13:24.438Z,4.30
2022-10-10T09:16:00.282Z,3.92
2022-10-10T09:18:39.703Z,5.03
2022-10-10T09:21:16.409Z,3.10
2022-10-10T09:23:47.273Z,5.47
2022-10-10T09:26:14.995Z,3.45
2022-10-10T09:29:03.168Z,4.18
2022-10-10T09:31:36.096Z,3.88
2022-10-10T09:34:18.895Z,4.00
2022-10-10T09:36:46.709Z,4.72
2022-10-10T09:39:21.413Z,4.15
2022-10-10T09:41:54.892Z,4.32
2022-10-10T09:44:22.289Z,6.63
2022-10-10T09:46:48.680Z,4.30
2022-10-10T09:49:17.091Z,3.30
2022-10-10T09:51:44.537Z,3.70
2022-10-10T09:54:11.916Z,4.00
2022-10-10T09:56:48.995Z,3.25
2022-10-10T09:59:42.430Z,1.92
2022-10-10T10:02:39.572Z,2.22
2022-10-10T10:05:22.063Z,4.90
2022-10-10T10:07:48.554Z,3.15
2022-10-10T10:10:20.665Z,2.70
2022-10-10T10:12:47.101Z,2.58
2022-10-10T10:15:20.473Z,3.95
2022-10-10T10:17:47.232Z,3.75
2022-10-10T10:20:33.453Z,4.32
2022-10-10T10:22:59.772Z,3.08
2022-10-10T10:25:31.445Z,3.10
2022-10-10T10:28:13.187Z,2.13
2022-10-10T10:30:40.155Z,4.60
2022-10-10T10:33:12.957Z,2.90
2022-10-10T10:35:58.311Z,3.05
2022-10-10T10:38:40.103Z,4.80
2022-10-10T10:41:18.593Z,2.95
2022-10-10T10:44:05.476Z,4.45
2022-10-10T10:46:37.692Z,3.58
2022-10-10T10:49:33.282Z,3.63
2022-10-10T10:52:09.785Z,4.53
2022-10-10T10:54:54.686Z,3.08
2022-10-10T10:58:04.172Z,4.75
2022-10-10T11:01:20.282Z,3.45
2022-10-10T11:05:16.717Z,3.33
2022-10-10T11:06:27.469Z,4.13
2022-10-10T11:09:04.513Z,3.20
2022-10-10T11:11:51.494Z,4.10
2022-10-10T11:14:52.151Z,4.05
2022-10-10T11:17:37.607Z,3.55
2022-10-10T11:20:24.586Z,5.63
2022-10-10T11:23:08.056Z,2.60
2022-10-10T11:25:45.414Z,3.72
2022-10-10T11:28:26.607Z,3.20
2022-10-10T11:31:13.460Z,3.95
2022-10-10T11:33:46.041Z,2.38
2022-10-10T11:36:19.194Z,3.92
2022-10-10T11:38:50.013Z,4.20
2022-10-10T11:41:25.761Z,2.60
2022-10-10T11:44:26.781Z,3.20
2022-10-10T11:47:00.539Z,3.25
2022-10-10T11:49:37.646Z,4.28
2022-10-10T11:52:32.353Z,2.50
2022-10-10T11:55:38.177Z,2.83
2022-10-10T11:58:04.415Z,2.55
2022-10-10T12:00:34.794Z,3.03
2022-10-10T12:03:01.353Z,2.95
2022-10-10T12:05:29.500Z,2.13
2022-10-10T12:08:18.465Z,3.80
2022-10-10T12:11:25.502Z,3.97
2022-10-10T12:14:01.981Z,6.07
2022-10-10T12:16:30.899Z,4.80
2022-10-10T12:19:03.600Z,5.60
2022-10-10T12:21:30.444Z,4.00
2022-10-10T12:24:14.826Z,4.97
2022-10-10T12:26:53.048Z,4.43
2022-10-10T12:29:56.467Z,4.80
2022-10-10T12:32:22.698Z,4.80
2022-10-10T12:34:49.040Z,3.38
2022-10-10T12:37:30.090Z,3.42
2022-10-10T12:40:20.684Z,4.00
2022-10-10T12:42:46.904Z,3.58
2022-10-10T12:45:31.475Z,5.25
2022-10-10T12:48:05.949Z,2.42
2022-10-10T12:50:36.177Z,4.10
2022-10-10T12:53:15.617Z,4.15
2022-10-10T12:55:48.101Z,2.80
2022-10-10T12:58:26.578Z,3.80
2022-10-10T13:01:07.011Z,3.42
2022-10-10T13:03:38.194Z,2.47
2022-10-10T13:06:39.152Z,3.22
2022-10-10T13:09:21.020Z,2.95
2022-10-10T13:11:56.180Z,3.17
2022-10-10T13:14:23.516Z,3.92
2022-10-10T13:16:49.932Z,3.95
2022-10-10T13:19:24.214Z,2.85
2022-10-10T13:21:52.421Z,2.97
2022-10-10T13:24:24.459Z,4.25
2022-10-10T13:26:52.618Z,1.98
2022-10-10T13:29:23.946Z,2.55
2022-10-10T13:31:51.841Z,2.42
2022-10-10T13:34:26.326Z,2.30
2022-10-10T13:36:55.841Z,2.65
2022-10-10T13:39:22.497Z,3.22
2022-10-10T13:41:49.132Z,2.10
2022-10-10T13:44:20.977Z,2.38
2022-10-10T13:46:47.332Z,4.03
2022-10-10T13:49:22.115Z,2.22
2022-10-10T13:51:51.364Z,2.55
2022-10-10T13:54:45.281Z,2.53
2022-10-10T13:57:15.614Z,3.08
2022-10-10T13:59:42.789Z,2.13
2022-10-10T14:02:13.365Z,2.25
2022-10-10T14:04:45.926Z,2.10
2022-10-10T14:07:21.402Z,2.95
2022-10-10T14:09:54.937Z,2.72
2022-10-10T14:12:28.270Z,2.72
2022-10-10T14:14:57.802Z,4.10
2022-10-10T14:17:25.211Z,4.50
2022-10-10T14:19:52.258Z,3.83
2022-10-10T14:22:18.787Z,3.15
2022-10-10T14:24:45.281Z,3.63
2022-10-10T14:27:16.592Z,3.83
2022-10-10T14:29:43.108Z,3.50
2022-10-10T14:32:13.340Z,2.95
2022-10-10T14:34:40.095Z,3.67
2022-10-10T14:37:06.529Z,2.70
2022-10-10T14:39:32.949Z,3.15
2022-10-10T14:42:01.552Z,3.20
2022-10-10T14:44:27.939Z,2.72
2022-10-10T14:46:54.293Z,3.40
2022-10-10T14:49:21.239Z,3.60
2022-10-10T14:51:48.252Z,4.40
2022-10-10T14:54:14.916Z,4.10
2022-10-10T14:57:06.938Z,4.82
2022-10-10T14:59:47.365Z,3.17
2022-10-10T15:02:16.789Z,3.28
2022-10-10T15:04:43.100Z,3.53
2022-10-10T15:07:14.023Z,3.63
2022-10-10T15:09:51.570Z,2.88
2022-10-10T15:12:27.710Z,3.50
2022-10-10T15:14:54.098Z,3.75
2022-10-10T15:17:20.452Z,4.07
2022-10-10T15:19:46.780Z,2.85
2022-10-10T15:22:13.112Z,3.10
2022-10-10T15:24:39.413Z,4.53
2022-10-10T15:27:05.746Z,4.65
2022-10-10T15:29:32.048Z,4.05
2022-10-10T15:31:58.632Z,4.70
2022-10-10T15:34:24.949Z,4.88
2022-10-10T15:36:51.320Z,4.20
2022-10-10T15:39:17.740Z,4.95
2022-10-10T15:41:44.113Z,4.95
2022-10-10T15:44:15.704Z,3.90
2022-10-10T15:46:43.162Z,3.90
2022-10-10T15:49:09.777Z,3.13
2022-10-10T15:51:36.349Z,7.15
2022-10-10T15:54:03.738Z,2.65
2022-10-10T15:56:33.019Z,3.25
2022-10-10T15:59:01.708Z,2.75
2022-10-10T16:01:29.031Z,2.28
2022-10-10T16:03:55.915Z,2.90
2022-10-10T16:06:23.413Z,4.85
2022-10-10T16:08:55.738Z,2.95
2022-10-10T16:11:25.933Z,5.07
2022-10-10T16:13:53.844Z,4.03
2022-10-10T16:16:21.330Z,3.35
2022-10-10T16:18:47.888Z,3.17
2022-10-10T16:21:20.427Z,4.13
2022-10-10T16:23:47.778Z,3.40
2022-10-10T16:26:16.568Z,2.85
2022-10-10T16:28:43.267Z,2.40
2022-10-10T16:31:11.900Z,2.30
2022-10-10T16:33:39.165Z,3.22
2022-10-10T16:36:10.362Z,2.92
2022-10-10T16:38:37.265Z,3.28
2022-10-10T16:41:05.736Z,2.60
2022-10-10T16:43:32.793Z,2.67
2022-10-10T16:46:03.470Z,2.50
2022-10-10T16:48:34.231Z,2.53
2022-10-10T16:51:03.455Z,2.60
2022-10-10T16:53:29.999Z,2.95
2022-10-10T16:56:05.863Z,2.95
2022-10-10T16:58:32.270Z,2.78
2022-10-10T17:01:01.315Z,3.17
2022-10-10T17:03:31.418Z,2.70
2022-10-10T17:06:10.303Z,2.33
2022-10-10T17:08:36.873Z,2.72
2022-10-10T17:11:03.468Z,2.78
2022-10-10T17:13:31.217Z,3.60
2022-10-10T17:16:08.795Z,3.40
2022-10-10T17:18:44.374Z,4.00
2022-10-10T17:21:13.392Z,3.38
2022-10-10T17:23:39.775Z,2.58
2022-10-10T17:26:07.985Z,4.53
2022-10-10T17:28:36.350Z,2.95
2022-10-10T17:31:08.732Z,2.85
2022-10-10T17:33:38.489Z,1.85
2022-10-10T17:36:09.432Z,3.38
2022-10-10T17:38:40.123Z,3.17
2022-10-10T17:41:07.657Z,2.78
2022-10-10T17:43:34.580Z,3.85
2022-10-10T17:46:21.932Z,2.92
2022-10-10T17:48:50.127Z,2.90
2022-10-10T17:51:22.151Z,3.72
2022-10-10T17:53:50.188Z,3.13
2022-10-10T17:56:20.097Z,3.63
2022-10-10T17:58:47.217Z,2.80
2022-10-10T18:01:16.146Z,2.63
2022-10-10T18:03:42.581Z,2.40
2022-10-10T18:06:11.273Z,2.15
2022-10-10T18:08:37.596Z,3.20
2022-10-10T18:11:05.825Z,3.58
2022-10-10T18:13:33.833Z,2.40
2022-10-10T18:16:20.415Z,2.22
2022-10-10T18:18:50.971Z,3.92
2022-10-10T18:21:19.906Z,2.50
2022-10-10T18:23:46.260Z,3.40
2022-10-10T18:26:15.601Z,2.58
2022-10-10T18:28:42.825Z,2.58
2022-10-10T18:31:14.777Z,2.58
2022-10-10T18:33:41.900Z,3.03
2022-10-10T18:36:09.001Z,2.22
2022-10-10T18:38:35.575Z,3.05
2022-10-10T18:41:10.010Z,3.70
2022-10-10T18:43:36.539Z,2.05
2022-10-10T18:46:04.570Z,3.35
2022-10-10T18:48:31.051Z,2.75
2022-10-10T18:51:06.369Z,2.60
2022-10-10T18:53:37.214Z,2.25
2022-10-10T18:56:04.296Z,2.97
2022-10-10T18:58:31.763Z,3.42
2022-10-10T19:01:00.192Z,2.58
2022-10-10T19:03:27.859Z,2.13
2022-10-10T19:05:54.759Z,3.25
2022-10-10T19:08:21.139Z,2.78
2022-10-10T19:10:48.795Z,2.80
2022-10-10T19:13:15.680Z,4.30
2022-10-10T19:15:42.031Z,2.50
2022-10-10T19:18:09.161Z,3.42
2022-10-10T19:20:36.203Z,2.40
2022-10-10T19:23:02.562Z,3.70
2022-10-10T19:25:30.655Z,2.40
2022-10-10T19:27:57.104Z,2.00
2022-10-10T19:30:23.611Z,3.53
2022-10-10T19:32:49.932Z,2.63
2022-10-10T19:35:16.297Z,2.88
2022-10-10T19:37:42.622Z,3.10
2022-10-10T19:40:09.247Z,2.65
2022-10-10T19:42:35.565Z,2.15
2022-10-10T19:45:01.862Z,2.13
2022-10-10T19:47:28.176Z,2.47
2022-10-10T19:49:54.486Z,2.95
2022-10-10T19:52:22.102Z,2.60
2022-10-10T19:54:48.417Z,2.38
2022-10-10T19:57:15.317Z,2.00
2022-10-10T19:59:41.680Z,2.45
2022-10-10T20:02:10.752Z,3.65
2022-10-10T20:04:37.086Z,2.30
2022-10-10T20:07:03.425Z,4.22
2022-10-10T20:09:30.047Z,4.05
2022-10-10T20:11:56.357Z,3.38
2022-10-10T20:14:22.664Z,2.95
2022-10-10T20:16:49.014Z,3.03
2022-10-10T20:19:15.368Z,2.45
2022-10-10T20:21:41.716Z,2.22
2022-10-10T20:24:09.347Z,3.10
2022-10-10T20:26:35.980Z,2.42
2022-10-10T20:29:02.851Z,2.40
2022-10-10T20:31:31.321Z,2.78
2022-10-10T20:34:00.552Z,2.17
2022-10-10T20:36:27.790Z,2.35
2022-10-10T20:39:00.474Z,2.40
2022-10-10T20:41:29.618Z,2.38
2022-10-10T20:44:00.312Z,2.55
2022-10-10T20:46:30.532Z,2.28
2022-10-10T20:48:58.346Z,3.75
2022-10-10T20:51:26.193Z,2.28
2022-10-10T20:54:04.356Z,2.10
2022-10-10T20:56:32.157Z,2.55
2022-10-10T20:58:58.966Z,2.50
2022-10-10T21:01:27.131Z,3.00
2022-10-10T21:03:53.513Z,2.72
2022-10-10T21:06:24.745Z,2.58
2022-10-10T21:08:52.529Z,2.55
2022-10-10T21:11:19.605Z,4.32
2022-10-10T21:13:51.932Z,3.63
2022-10-10T21:16:18.348Z,3.53
2022-10-10T21:18:56.912Z,4.60
2022-10-10T21:21:25.096Z,3.42
2022-10-10T21:23:55.779Z,3.20
2022-10-10T21:26:22.952Z,3.97
2022-10-10T21:28:50.427Z,4.20
2022-10-10T21:31:22.796Z,6.30
2022-10-10T21:33:49.496Z,5.90
2022-10-10T21:36:17.323Z,5.30
2022-10-10T21:38:43.966Z,2.78
2022-10-10T21:41:16.364Z,2.85
2022-10-10T21:43:44.517Z,2.50
2022-10-10T21:46:13.464Z,3.50
2022-10-10T21:48:39.830Z,3.95
2022-10-10T21:51:06.261Z,2.40
2022-10-10T21:53:32.744Z,2.33
2022-10-10T21:55:59.205Z,2.30
2022-10-10T21:58:25.927Z,2.20
2022-10-10T22:00:52.330Z,3.23
2022-10-10T22:03:18.774Z,2.53
2022-10-10T22:05:45.147Z,3.43
2022-10-10T22:08:11.584Z,1.93
2022-10-10T22:10:40.429Z,1.90
2022-10-10T22:13:06.855Z,2.33
2022-10-10T22:15:33.294Z,2.03
2022-10-10T22:17:59.638Z,2.17
2022-10-10T22:20:26.063Z,3.07
2022-10-10T22:22:52.377Z,2.53
2022-10-10T22:25:18.870Z,2.17
2022-10-10T22:27:45.185Z,1.93
2022-10-10T22:30:13.245Z,2.20
2022-10-10T22:32:39.675Z,2.90
2022-10-10T22:35:06.152Z,2.30
2022-10-10T22:37:32.538Z,1.93
2022-10-10T22:39:58.854Z,2.90
2022-10-10T22:42:25.230Z,2.47
2022-10-10T22:44:51.569Z,2.50
2022-10-10T22:47:17.874Z,3.07
2022-10-10T22:49:44.202Z,2.20
2022-10-10T22:52:11.639Z,2.00
2022-10-10T22:54:37.947Z,2.37
2022-10-10T22:57:04.268Z,1.93
2022-10-10T22:59:30.610Z,2.87
2022-10-10T23:01:56.947Z,2.57
2022-10-10T23:04:23.348Z,2.37
2022-10-10T23:06:50.356Z,2.30
2022-10-10T23:09:17.478Z,3.53
2022-10-10T23:11:43.790Z,2.53
2022-10-10T23:14:10.119Z,2.43
2022-10-10T23:16:40.401Z,3.73
2022-10-10T23:19:07.140Z,2.00
2022-10-10T23:21:33.467Z,2.67
2022-10-10T23:23:59.852Z,2.40
2022-10-10T23:26:26.176Z,1.97
2022-10-10T23:28:52.566Z,4.03
2022-10-10T23:31:18.969Z,2.60
2022-10-10T23:33:45.331Z,2.20
2022-10-10T23:36:13.172Z,2.80
2022-10-10T23:38:40.533Z,2.70
2022-10-10T23:41:07.858Z,3.53
2022-10-10T23:43:34.187Z,3.77
2022-10-10T23:46:00.547Z,2.03
2022-10-10T23:48:26.992Z,2.20
2022-10-10T23:50:53.361Z,3.10
2022-10-10T23:53:19.726Z,2.87
2022-10-10T23:58:37.818Z,2.67
